Time;durP1;ratioP1;P1;durP2;ratioP2;P2;SDS_P1;SDS_P2;PMS_P1;PMS_P2;Temp;Humidity;BMP_temperature;BMP_pressure;BME280_temperature;BME280_humidity;BME280_pressure;Samples;Min_cycle;Max_cycle;Signal;HPM_P1;HPM_P2
2023/05/17 00:00:33;;;;;;;17.30;3.95;;;12.10;99.90;;;;;;4940770;28;20042;-76
2023/05/17 00:02:58;;;;;;;17.13;3.58;;;12.10;99.90;;;;;;4999123;28;20049;-76
2023/05/17 00:05:24;;;;;;;10.30;2.78;;;12.20;99.90;;;;;;4974692;28;20509;-84
2023/05/17 00:07:50;;;;;;;17.40;3.13;;;12.10;99.90;;;;;;4969199;28;20121;-78
2023/05/17 00:10:16;;;;;;;15.48;3.40;;;12.10;99.90;;;;;;4989008;28;20054;-83
2023/05/17 00:12:41;;;;;;;12.88;3.20;;;12.20;99.90;;;;;;4996401;28;20037;-79
2023/05/17 00:15:07;;;;;;;18.17;3.88;;;12.20;99.90;;;;;;4988567;28;20038;-75
2023/05/17 00:17:33;;;;;;;17.27;3.63;;;12.20;99.90;;;;;;5058514;28;20130;-78
2023/05/17 00:19:59;;;;;;;16.65;3.42;;;12.30;99.90;;;;;;4989931;28;20121;-77
2023/05/17 00:22:24;;;;;;;21.63;4.20;;;12.20;99.90;;;;;;4986781;28;20037;-80
2023/05/17 00:24:50;;;;;;;20.38;3.67;;;12.20;99.90;;;;;;4972934;28;20046;-77
2023/05/17 00:27:16;;;;;;;12.68;3.85;;;12.30;99.90;;;;;;4957192;28;20103;-78
2023/05/17 00:29:41;;;;;;;14.48;3.15;;;12.30;99.90;;;;;;4974609;28;20106;-77
2023/05/17 00:32:07;;;;;;;19.58;3.97;;;12.50;99.90;;;;;;4996094;28;20043;-78
2023/05/17 00:34:33;;;;;;;19.08;3.70;;;12.60;99.90;;;;;;4973802;28;20084;-75
2023/05/17 00:36:58;;;;;;;17.40;3.40;;;12.60;99.90;;;;;;5011261;28;20042;-79
2023/05/17 00:39:24;;;;;;;15.25;3.35;;;12.60;99.90;;;;;;4997986;28;20076;-79
2023/05/17 00:41:50;;;;;;;15.90;3.42;;;12.50;99.90;;;;;;4996403;28;20042;-76
2023/05/17 00:44:15;;;;;;;19.17;3.53;;;12.50;99.90;;;;;;4959335;28;20034;-80
2023/05/17 00:46:41;;;;;;;13.70;3.28;;;12.40;99.90;;;;;;4999166;28;20066;-79
2023/05/17 00:49:06;;;;;;;14.82;3.10;;;12.40;99.90;;;;;;4975331;28;20073;-77
2023/05/17 00:51:33;;;;;;;19.20;3.83;;;12.30;99.90;;;;;;4973163;28;20037;-75
2023/05/17 00:53:59;;;;;;;12.75;3.20;;;12.30;99.90;;;;;;5001631;28;20060;-80
2023/05/17 00:56:25;;;;;;;18.55;3.65;;;12.10;99.90;;;;;;4989187;28;20057;-77
2023/05/17 00:58:52;;;;;;;12.52;3.90;;;12.20;99.90;;;;;;4987933;28;20046;-81
2023/05/17 01:01:18;;;;;;;13.25;3.17;;;12.00;99.90;;;;;;4997278;28;20048;-79
2023/05/17 01:03:44;;;;;;;11.35;2.80;;;11.90;99.90;;;;;;4993593;28;20393;-79
2023/05/17 01:06:13;;;;;;;15.30;3.00;;;12.00;99.90;;;;;;4970552;28;20110;-76
2023/05/17 01:08:48;;;;;;;13.10;2.95;;;11.90;99.90;;;;;;4970095;28;20053;-80
2023/05/17 01:11:41;;;;;;;13.52;2.85;;;11.90;99.90;;;;;;4952311;28;20042;-76
2023/05/17 01:14:47;;;;;;;16.25;3.20;;;12.00;99.90;;;;;;5005279;28;20549;-81
2023/05/17 01:17:42;;;;;;;14.43;3.08;;;12.10;99.90;;;;;;4997385;28;20046;-80
2023/05/17 01:20:26;;;;;;;14.63;2.92;;;11.90;99.90;;;;;;4986431;28;20088;-81
2023/05/17 01:23:11;;;;;;;15.13;2.33;;;11.80;99.90;;;;;;4982705;28;20046;-76
2023/05/17 01:25:48;;;;;;;13.95;3.38;;;11.90;99.90;;;;;;4989101;28;20054;-76
2023/05/17 01:28:16;;;;;;;16.77;2.97;;;11.70;99.90;;;;;;4969961;28;20510;-79
2023/05/17 01:30:44;;;;;;;15.55;3.03;;;11.80;99.90;;;;;;4988276;28;20057;-80
2023/05/17 01:33:12;;;;;;;17.85;3.10;;;12.00;99.90;;;;;;5014684;28;20042;-77
2023/05/17 01:35:37;;;;;;;11.88;2.95;;;12.00;99.90;;;;;;4987351;28;20050;-79
2023/05/17 01:38:03;;;;;;;12.85;2.97;;;12.00;99.90;;;;;;4989181;28;20095;-79
2023/05/17 01:40:32;;;;;;;17.15;3.08;;;12.20;99.90;;;;;;4989419;28;20101;-81
2023/05/17 01:43:16;;;;;;;16.95;3.90;;;12.30;99.90;;;;;;4970095;28;20204;-81
2023/05/17 01:46:12;;;;;;;14.63;3.03;;;12.40;99.90;;;;;;4989947;28;20069;-77
2023/05/17 01:48:44;;;;;;;;;;;12.40;99.90;;;;;;4987552;28;20410;-80
2023/05/17 01:51:18;;;;;;;12.18;2.72;;;12.70;99.90;;;;;;4989088;28;20269;-81
2023/05/17 01:53:47;;;;;;;15.13;3.47;;;12.50;99.90;;;;;;4988258;28;20171;-82
2023/05/17 01:56:19;;;;;;;15.55;3.40;;;12.50;99.90;;;;;;4973182;28;20481;-84
2023/05/17 01:58:47;;;;;;;8.05;2.60;;;12.50;99.90;;;;;;4987943;28;20103;-78
2023/05/17 02:01:15;;;;;;;9.05;1.90;;;12.30;99.90;;;;;;4987310;28;20042;-83
2023/05/17 02:03:41;;;;;;;8.65;2.58;;;12.30;99.90;;;;;;4969671;28;20088;-78
2023/05/17 02:06:07;;;;;;;14.60;2.50;;;12.20;99.90;;;;;;4988926;28;20533;-78
2023/05/17 02:08:35;;;;;;;8.35;2.25;;;12.10;99.90;;;;;;4956792;28;20547;-76
2023/05/17 02:11:01;;;;;;;8.52;1.83;;;12.00;99.90;;;;;;5057197;28;20038;-77
2023/05/17 02:13:27;;;;;;;8.00;2.00;;;11.90;99.90;;;;;;4953326;28;20068;-76
2023/05/17 02:15:53;;;;;;;9.40;2.50;;;12.00;99.90;;;;;;4989233;28;20513;-79
2023/05/17 02:18:20;;;;;;;9.60;2.20;;;12.00;99.90;;;;;;4971326;28;20042;-79
2023/05/17 02:20:46;;;;;;;8.85;2.13;;;12.10;99.90;;;;;;4956531;28;20504;-75
2023/05/17 02:23:12;;;;;;;10.88;2.60;;;12.20;99.90;;;;;;4970998;28;20042;-81
2023/05/17 02:25:37;;;;;;;8.82;1.92;;;12.10;99.90;;;;;;4972072;28;20041;-79
2023/05/17 02:28:03;;;;;;;16.92;2.80;;;12.10;99.90;;;;;;5057356;28;20082;-77
2023/05/17 02:30:30;;;;;;;15.85;2.90;;;12.00;99.90;;;;;;4942455;28;20820;-77
2023/05/17 02:32:55;;;;;;;12.27;2.80;;;11.80;99.90;;;;;;4988065;28;20061;-78
2023/05/17 02:35:21;;;;;;;8.00;2.13;;;11.90;99.90;;;;;;4986416;28;20046;-79
2023/05/17 02:37:47;;;;;;;8.45;2.13;;;11.80;99.90;;;;;;4968711;28;20034;-76
2023/05/17 02:40:13;;;;;;;13.65;2.50;;;11.80;99.90;;;;;;5010234;28;20053;-75
2023/05/17 02:42:38;;;;;;;12.35;2.75;;;11.70;99.90;;;;;;4974673;28;20046;-76
2023/05/17 02:45:04;;;;;;;9.30;2.08;;;11.70;99.90;;;;;;4991178;28;20041;-75
2023/05/17 02:47:30;;;;;;;9.80;2.35;;;11.80;99.90;;;;;;4991996;28;20098;-77
2023/05/17 02:49:56;;;;;;;12.77;2.05;;;11.70;99.90;;;;;;4976662;28;20129;-75
2023/05/17 02:52:21;;;;;;;9.20;1.83;;;11.80;99.90;;;;;;4971389;28;20050;-76
2023/05/17 02:54:47;;;;;;;9.23;2.15;;;11.60;99.90;;;;;;4982061;28;20502;-75
2023/05/17 02:57:13;;;;;;;7.80;1.85;;;11.70;99.90;;;;;;5000360;28;20118;-73
2023/05/17 02:59:38;;;;;;;11.73;2.72;;;11.60;99.90;;;;;;4986620;28;20129;-73
2023/05/17 03:02:04;;;;;;;7.00;1.90;;;11.50;99.90;;;;;;4960567;28;20045;-76
2023/05/17 03:04:32;;;;;;;9.10;2.60;;;11.60;99.90;;;;;;4995891;28;20516;-77
2023/05/17 03:06:57;;;;;;;11.40;2.38;;;11.50;99.90;;;;;;4971045;28;20091;-77
2023/05/17 03:09:23;;;;;;;14.98;2.80;;;11.50;99.90;;;;;;4957542;28;20056;-79
2023/05/17 03:11:49;;;;;;;8.13;2.45;;;11.40;99.90;;;;;;4971966;28;20049;-78
2023/05/17 03:14:15;;;;;;;11.25;2.20;;;11.40;99.90;;;;;;4954467;28;20105;-77
2023/05/17 03:16:41;;;;;;;11.95;3.10;;;11.30;99.90;;;;;;5060263;28;21064;-80
2023/05/17 03:19:06;;;;;;;8.52;2.40;;;11.40;99.90;;;;;;4992788;28;20045;-78
2023/05/17 03:21:32;;;;;;;9.43;2.08;;;11.40;99.90;;;;;;4982216;28;20044;-82
2023/05/17 03:23:58;;;;;;;9.35;2.25;;;11.30;99.90;;;;;;4992032;28;20045;-75
2023/05/17 03:26:27;;;;;;;7.10;2.05;;;11.20;99.90;;;;;;4956810;28;20052;-78
2023/05/17 03:28:53;;;;;;;6.03;2.22;;;11.40;99.90;;;;;;4973447;28;20919;-76
2023/05/17 03:31:22;;;;;;;12.82;2.22;;;12.50;99.90;;;;;;4967938;28;20072;-78
2023/05/17 03:33:50;;;;;;;5.90;1.88;;;11.40;99.90;;;;;;4975281;28;20494;-79
2023/05/17 03:36:16;;;;;;;12.70;2.50;;;11.60;99.90;;;;;;4972364;28;20033;-80
2023/05/17 03:38:42;;;;;;;11.40;2.22;;;11.70;99.90;;;;;;4991182;28;20046;-76
2023/05/17 03:41:07;;;;;;;9.35;1.92;;;11.60;99.90;;;;;;4998040;28;20044;-74
2023/05/17 03:43:33;;;;;;;11.77;2.40;;;11.80;99.90;;;;;;4990919;28;20046;-80
2023/05/17 03:45:59;;;;;;;7.35;1.65;;;11.70;99.90;;;;;;4969707;28;20035;-75
2023/05/17 03:48:24;;;;;;;8.40;1.80;;;11.80;99.90;;;;;;4955296;28;20104;-77
2023/05/17 03:50:50;;;;;;;7.20;1.63;;;11.70;99.90;;;;;;4985347;28;20050;-83
2023/05/17 03:53:16;;;;;;;5.68;1.90;;;11.60;99.90;;;;;;4942135;28;20046;-79
2023/05/17 03:55:42;;;;;;;7.68;1.45;;;11.70;99.90;;;;;;4972901;28;20700;-76
2023/05/17 03:58:08;;;;;;;5.93;1.58;;;11.60;99.90;;;;;;4987733;28;20049;-76
2023/05/17 04:00:33;;;;;;;6.22;1.80;;;11.50;99.90;;;;;;4991631;28;20049;-77
2023/05/17 04:03:04;;;;;;;8.98;2.08;;;11.60;99.90;;;;;;4970902;28;20053;-78
2023/05/17 04:05:31;;;;;;;6.43;1.63;;;11.60;99.90;;;;;;4981852;28;20318;-76
2023/05/17 04:07:57;;;;;;;4.03;1.40;;;11.70;99.90;;;;;;4986482;28;20073;-80
2023/05/17 04:10:23;;;;;;;8.95;2.65;;;11.80;99.90;;;;;;4972489;28;20080;-79
2023/05/17 04:12:48;;;;;;;9.15;1.55;;;11.80;99.90;;;;;;4995552;28;20474;-75
2023/05/17 04:15:14;;;;;;;7.65;1.67;;;11.90;99.90;;;;;;5033914;28;20038;-76
2023/05/17 04:17:40;;;;;;;5.90;2.13;;;12.00;99.90;;;;;;4990952;28;20049;-76
2023/05/17 04:20:06;;;;;;;9.68;1.95;;;11.90;99.90;;;;;;4999260;28;20553;-74
2023/05/17 04:22:32;;;;;;;6.53;1.85;;;11.90;99.90;;;;;;4988906;28;20134;-77
2023/05/17 04:24:58;;;;;;;6.78;1.60;;;11.90;99.90;;;;;;4975175;28;20135;-76
2023/05/17 04:27:23;;;;;;;9.07;2.05;;;11.90;99.90;;;;;;4974147;28;20061;-78
2023/05/17 04:29:49;;;;;;;8.43;1.63;;;11.90;99.90;;;;;;4991176;28;20046;-74
2023/05/17 04:32:16;;;;;;;5.57;1.33;;;11.80;99.90;;;;;;4958747;28;20065;-78
2023/05/17 04:34:42;;;;;;;7.25;1.60;;;11.80;99.90;;;;;;4991129;28;20060;-77
2023/05/17 04:37:07;;;;;;;8.02;1.33;;;11.90;99.90;;;;;;4934825;28;20640;-76
2023/05/17 04:39:33;;;;;;;7.13;2.22;;;11.90;99.90;;;;;;4990009;28;20053;-80
2023/05/17 04:41:59;;;;;;;7.72;1.40;;;11.90;99.90;;;;;;4990135;28;20493;-79
2023/05/17 04:44:25;;;;;;;10.05;1.90;;;11.90;99.90;;;;;;4990683;28;20080;-78
2023/05/17 04:46:51;;;;;;;7.68;1.55;;;11.90;99.90;;;;;;5046981;28;20568;-78
2023/05/17 04:49:17;;;;;;;6.18;1.70;;;11.90;99.90;;;;;;4955194;28;20401;-78
2023/05/17 04:51:43;;;;;;;6.10;1.50;;;12.00;99.90;;;;;;4983032;28;20042;-82
2023/05/17 04:54:09;;;;;;;6.15;1.63;;;11.90;99.90;;;;;;4997883;28;20049;-78
2023/05/17 04:56:38;;;;;;;8.35;1.63;;;11.90;99.90;;;;;;4972818;28;20049;-78
2023/05/17 04:59:03;;;;;;;5.82;1.38;;;12.00;99.90;;;;;;4985511;28;20669;-78
2023/05/17 05:01:34;;;;;;;9.05;1.85;;;11.90;99.90;;;;;;4965905;28;20069;-81
2023/05/17 05:04:05;;;;;;;6.43;1.60;;;12.00;99.90;;;;;;4990456;28;20443;-81
2023/05/17 05:06:32;;;;;;;5.25;1.30;;;12.00;99.90;;;;;;4957727;28;20529;-79
2023/05/17 05:08:58;;;;;;;8.27;2.03;;;12.10;99.90;;;;;;4969909;28;20161;-78
2023/05/17 05:11:24;;;;;;;6.25;1.98;;;12.10;99.90;;;;;;4968178;28;20042;-78
2023/05/17 05:13:52;;;;;;;4.93;1.20;;;12.10;99.90;;;;;;4956149;28;20030;-77
2023/05/17 05:16:18;;;;;;;7.40;1.17;;;12.20;99.90;;;;;;4973321;28;20041;-76
2023/05/17 05:18:43;;;;;;;5.70;2.00;;;12.20;99.90;;;;;;4997145;28;20430;-81
2023/05/17 05:21:09;;;;;;;10.00;1.50;;;12.20;99.90;;;;;;4973182;28;20061;-77
2023/05/17 05:23:35;;;;;;;8.85;2.13;;;12.20;99.90;;;;;;4964952;28;20049;-79
2023/05/17 05:26:01;;;;;;;7.72;1.83;;;12.20;99.90;;;;;;4988509;28;20050;-80
2023/05/17 05:28:27;;;;;;;9.20;2.13;;;12.20;99.90;;;;;;4971598;28;20052;-75
2023/05/17 05:30:58;;;;;;;9.63;1.60;;;12.40;99.90;;;;;;4972580;28;20550;-77
2023/05/17 05:33:24;;;;;;;5.65;1.70;;;12.40;99.90;;;;;;4994286;28;20053;-81
2023/05/17 05:35:58;;;;;;;8.65;2.28;;;12.40;99.90;;;;;;4988587;28;20038;-77
2023/05/17 05:38:26;;;;;;;9.07;2.10;;;12.40;99.90;;;;;;4956960;28;20049;-77
2023/05/17 05:40:52;;;;;;;9.88;2.30;;;12.50;99.90;;;;;;5056382;28;20045;-79
2023/05/17 05:43:18;;;;;;;8.07;1.60;;;12.50;99.90;;;;;;5010075;28;20094;-76
2023/05/17 05:45:46;;;;;;;7.32;1.85;;;12.50;99.90;;;;;;4973128;28;20125;-80
2023/05/17 05:48:12;;;;;;;8.25;1.88;;;12.60;99.90;;;;;;4972735;28;20045;-77
2023/05/17 05:50:44;;;;;;;10.27;2.25;;;12.70;99.90;;;;;;5052758;28;20574;-78
2023/05/17 05:53:11;;;;;;;11.25;2.33;;;12.80;99.90;;;;;;4972597;28;20050;-81
2023/05/17 05:55:40;;;;;;;11.20;2.50;;;13.00;99.90;;;;;;4972414;28;20049;-78
2023/05/17 05:58:06;;;;;;;7.63;2.00;;;13.20;99.90;;;;;;4987767;28;20048;-81
2023/05/17 06:00:31;;;;;;;8.20;2.20;;;13.00;99.90;;;;;;4971189;28;20034;-76
2023/05/17 06:02:58;;;;;;;8.10;1.75;;;13.10;99.90;;;;;;4987310;28;20521;-79
2023/05/17 06:05:23;;;;;;;8.75;2.10;;;13.00;99.90;;;;;;4988707;28;20056;-78
2023/05/17 06:07:57;;;;;;;10.18;1.80;;;13.00;99.90;;;;;;4996559;28;20351;-75
2023/05/17 06:10:23;;;;;;;6.10;2.10;;;13.00;99.90;;;;;;4967460;28;20034;-81
2023/05/17 06:12:49;;;;;;;9.13;2.00;;;13.00;99.90;;;;;;4981523;28;20108;-77
2023/05/17 06:15:14;;;;;;;10.98;2.13;;;12.90;99.90;;;;;;4973529;28;20084;-76
2023/05/17 06:17:40;;;;;;;12.38;2.25;;;12.90;99.90;;;;;;4972592;28;20049;-78
2023/05/17 06:20:07;;;;;;;8.55;1.83;;;12.90;99.90;;;;;;4998662;28;20042;-79
2023/05/17 06:22:33;;;;;;;16.13;2.65;;;12.80;99.90;;;;;;4986951;28;20045;-76
2023/05/17 06:24:59;;;;;;;7.85;2.42;;;12.70;99.90;;;;;;4988627;28;20107;-76
2023/05/17 06:27:25;;;;;;;10.82;2.83;;;12.70;99.90;;;;;;4972778;28;20124;-81
2023/05/17 06:29:51;;;;;;;7.53;2.47;;;12.70;99.90;;;;;;4969980;28;20076;-80
2023/05/17 06:32:17;;;;;;;8.30;1.95;;;12.80;99.90;;;;;;5003413;28;20034;-77
2023/05/17 06:34:42;;;;;;;8.02;2.60;;;12.90;99.90;;;;;;4954027;28;20144;-75
2023/05/17 06:37:09;;;;;;;11.57;2.65;;;12.90;99.90;;;;;;4955557;28;20042;-79
2023/05/17 06:39:34;;;;;;;11.85;2.75;;;13.00;99.90;;;;;;4967825;28;20034;-79
2023/05/17 06:42:00;;;;;;;8.27;2.25;;;13.00;99.90;;;;;;4955531;28;20118;-81
2023/05/17 06:44:26;;;;;;;10.02;2.47;;;13.10;99.90;;;;;;4994135;28;20038;-77
2023/05/17 06:46:52;;;;;;;13.77;2.42;;;13.30;99.90;;;;;;4974098;28;20161;-76
2023/05/17 06:49:20;;;;;;;10.82;2.15;;;13.50;99.90;;;;;;4990144;28;20125;-76
2023/05/17 06:51:47;;;;;;;8.00;1.85;;;13.40;99.90;;;;;;4972066;28;20038;-79
2023/05/17 06:54:13;;;;;;;6.07;1.55;;;13.30;99.90;;;;;;5000627;28;20054;-76
2023/05/17 06:56:39;;;;;;;7.90;2.03;;;13.30;99.90;;;;;;4968926;28;20041;-77
2023/05/17 06:59:05;;;;;;;13.63;1.98;;;13.40;99.90;;;;;;4991475;28;20073;-78
2023/05/17 07:01:31;;;;;;;8.40;1.67;;;13.60;99.90;;;;;;4987627;28;20049;-76
2023/05/17 07:04:00;;;;;;;6.57;1.80;;;13.80;99.90;;;;;;4972178;28;20034;-76
2023/05/17 07:06:25;;;;;;;10.40;1.80;;;14.00;99.90;;;;;;4938928;28;20672;-78
2023/05/17 07:08:52;;;;;;;8.02;1.77;;;14.00;99.90;;;;;;4985022;28;20107;-78
2023/05/17 07:11:18;;;;;;;7.53;1.60;;;14.00;99.90;;;;;;4954808;28;20041;-78
2023/05/17 07:13:44;;;;;;;6.85;2.08;;;14.10;99.90;;;;;;4966147;28;20030;-80
2023/05/17 07:16:10;;;;;;;9.48;2.17;;;13.80;99.90;;;;;;4955456;28;20030;-79
2023/05/17 07:18:36;;;;;;;8.20;2.10;;;13.80;99.90;;;;;;4963511;28;20505;-79
2023/05/17 07:21:01;;;;;;;6.88;1.75;;;13.90;99.90;;;;;;4963540;28;20038;-79
2023/05/17 07:23:30;;;;;;;7.10;1.80;;;13.90;99.90;;;;;;4976710;28;20044;-81
2023/05/17 07:26:01;;;;;;;9.02;2.00;;;13.80;99.90;;;;;;4972206;28;20076;-80
2023/05/17 07:28:27;;;;;;;7.63;2.25;;;13.80;99.90;;;;;;4978629;28;20090;-75
2023/05/17 07:30:54;;;;;;;5.57;1.50;;;13.90;99.90;;;;;;4979876;28;20041;-79
2023/05/17 07:33:23;;;;;;;6.72;1.67;;;13.90;99.90;;;;;;4971680;28;20053;-82
2023/05/17 07:35:48;;;;;;;10.15;2.50;;;13.90;99.90;;;;;;4958151;28;20030;-77
2023/05/17 07:38:14;;;;;;;10.65;2.30;;;13.90;99.90;;;;;;5009146;28;20071;-82
2023/05/17 07:40:46;;;;;;;10.02;1.90;;;13.90;99.90;;;;;;4973024;28;20041;-77
2023/05/17 07:43:11;;;;;;;7.50;2.00;;;13.80;99.90;;;;;;4952406;28;20044;-78
2023/05/17 07:45:37;;;;;;;8.77;2.85;;;13.90;99.90;;;;;;4967284;28;20414;-79
2023/05/17 07:48:03;;;;;;;10.25;1.92;;;13.70;99.90;;;;;;4970788;28;20379;-74
2023/05/17 07:50:29;;;;;;;11.80;2.38;;;13.80;99.90;;;;;;5005160;28;20045;-83
2023/05/17 07:52:55;;;;;;;12.43;2.20;;;13.80;99.90;;;;;;5046736;28;20073;-79
2023/05/17 07:55:21;;;;;;;8.32;2.20;;;14.00;99.90;;;;;;4972505;28;20065;-78
2023/05/17 07:57:47;;;;;;;8.82;2.38;;;14.00;99.90;;;;;;4956697;28;20486;-76
2023/05/17 08:00:13;;;;;;;6.55;1.98;;;13.90;99.90;;;;;;4938262;28;20058;-82
2023/05/17 08:02:39;;;;;;;10.27;2.25;;;14.10;99.90;;;;;;4969840;28;20529;-78
2023/05/17 08:05:07;;;;;;;10.50;3.03;;;14.00;99.90;;;;;;4955530;28;20102;-79
2023/05/17 08:07:33;;;;;;;9.63;2.13;;;14.00;99.90;;;;;;4957086;28;20046;-79
2023/05/17 08:09:58;;;;;;;11.63;1.70;;;13.90;99.90;;;;;;4991189;28;20402;-76
2023/05/17 08:12:27;;;;;;;12.07;2.60;;;14.00;99.90;;;;;;4990088;28;20145;-80
2023/05/17 08:14:53;;;;;;;7.10;1.80;;;14.00;99.90;;;;;;4972308;28;20034;-80
2023/05/17 08:17:18;;;;;;;10.80;2.17;;;14.00;99.90;;;;;;4986730;28;20113;-82
2023/05/17 08:19:44;;;;;;;7.18;1.58;;;14.00;99.90;;;;;;4993269;28;20031;-79
2023/05/17 08:22:10;;;;;;;8.07;2.22;;;14.10;99.90;;;;;;4971196;28;20045;-84
2023/05/17 08:24:36;;;;;;;10.05;1.67;;;14.50;99.90;;;;;;4995752;28;20035;-76
2023/05/17 08:27:02;;;;;;;7.82;1.60;;;15.10;99.90;;;;;;4970527;28;20034;-76
2023/05/17 08:29:27;;;;;;;9.50;2.20;;;15.10;99.90;;;;;;4973565;28;20116;-77
2023/05/17 08:31:53;;;;;;;4.45;2.42;;;14.70;99.90;;;;;;4954369;28;20042;-83
2023/05/17 08:34:19;;;;;;;5.78;1.65;;;14.80;99.90;;;;;;4974153;28;20239;-80
2023/05/17 08:36:45;;;;;;;8.77;1.52;;;14.80;99.90;;;;;;4956053;28;20121;-80
2023/05/17 08:39:11;;;;;;;8.68;2.00;;;14.60;99.90;;;;;;4968399;28;20078;-81
2023/05/17 08:41:38;;;;;;;7.57;1.73;;;14.70;99.90;;;;;;4990616;28;20118;-78
2023/05/17 08:44:05;;;;;;;5.50;1.58;;;14.50;99.90;;;;;;4974323;28;20045;-80
2023/05/17 08:46:32;;;;;;;6.65;1.80;;;14.40;99.90;;;;;;4974192;28;20090;-76
2023/05/17 08:49:00;;;;;;;5.60;1.50;;;14.40;99.90;;;;;;4974870;28;20042;-84
2023/05/17 08:51:27;;;;;;;8.30;2.03;;;14.30;99.90;;;;;;4990052;28;20042;-77
2023/05/17 08:53:54;;;;;;;8.27;2.30;;;14.30;99.90;;;;;;4971734;28;20046;-79
2023/05/17 08:56:21;;;;;;;5.78;2.03;;;14.30;99.90;;;;;;4975386;28;20082;-81
2023/05/17 08:58:50;;;;;;;5.53;1.65;;;14.10;99.90;;;;;;5011427;28;20135;-77
2023/05/17 09:01:17;;;;;;;7.57;1.65;;;14.10;99.90;;;;;;4995572;28;20061;-80
2023/05/17 09:03:47;;;;;;;15.00;2.78;;;14.10;99.90;;;;;;4992130;28;20056;-76
2023/05/17 09:06:19;;;;;;;7.10;1.73;;;14.20;99.90;;;;;;4998976;28;20034;-75
2023/05/17 09:08:45;;;;;;;17.45;2.78;;;14.10;99.90;;;;;;4967229;28;20033;-84
2023/05/17 09:11:11;;;;;;;16.02;3.95;;;14.00;99.90;;;;;;4954399;28;20577;-84
2023/05/17 09:13:37;;;;;;;23.10;3.17;;;14.00;99.90;;;;;;4965640;28;20113;-79
2023/05/17 09:16:13;;;;;;;9.02;1.85;;;14.20;99.90;;;;;;4972662;28;20034;-82
2023/05/17 09:18:39;;;;;;;9.88;1.70;;;14.20;99.90;;;;;;4993540;28;20042;-82
2023/05/17 09:21:05;;;;;;;6.13;2.05;;;14.10;99.90;;;;;;4971053;28;20040;-80
2023/05/17 09:23:34;;;;;;;11.68;2.08;;;14.20;99.90;;;;;;4951646;28;20057;-80
2023/05/17 09:26:05;;;;;;;6.30;1.73;;;14.20;99.90;;;;;;4972555;28;20086;-77
2023/05/17 09:28:40;;;;;;;8.63;1.95;;;14.20;99.90;;;;;;4972679;28;20042;-79
2023/05/17 09:31:09;;;;;;;7.80;1.60;;;14.50;99.90;;;;;;4984524;28;20120;-78
2023/05/17 09:33:52;;;;;;;6.53;2.00;;;14.50;99.90;;;;;;4996767;28;20409;-79
2023/05/17 09:36:19;;;;;;;13.68;2.05;;;15.00;99.90;;;;;;4972979;28;20046;-79
2023/05/17 09:39:06;;;;;;;5.05;1.48;;;14.70;99.90;;;;;;4991823;28;20050;-79
2023/05/17 09:41:40;;;;;;;5.57;1.45;;;14.70;99.90;;;;;;5007945;28;20053;-80
2023/05/17 09:44:08;;;;;;;8.52;2.15;;;14.90;99.90;;;;;;4991579;28;20394;-79
2023/05/17 09:46:35;;;;;;;7.90;1.98;;;14.90;99.90;;;;;;4971782;28;20045;-79
2023/05/17 09:49:03;;;;;;;6.40;1.98;;;14.90;99.90;;;;;;4967721;28;20049;-79
2023/05/17 09:51:36;;;;;;;7.75;1.65;;;14.90;99.90;;;;;;4963029;28;20106;-79
2023/05/17 09:54:09;;;;;;;2.85;1.23;;;15.40;99.90;;;;;;4988268;28;20054;-73
2023/05/17 09:56:35;;;;;;;9.35;1.30;;;15.20;99.90;;;;;;4968802;28;20125;-79
2023/05/17 09:59:03;;;;;;;8.55;1.70;;;15.10;99.90;;;;;;4955945;28;20041;-79
2023/05/17 10:01:30;;;;;;;10.70;2.00;;;15.40;99.90;;;;;;4971154;28;20478;-80
2023/05/17 10:04:01;;;;;;;8.95;1.70;;;15.30;99.90;;;;;;4972916;28;20381;-79
2023/05/17 10:06:29;;;;;;;5.95;1.95;;;15.00;99.90;;;;;;4994159;28;20179;-78
2023/05/17 10:08:59;;;;;;;6.97;1.80;;;15.10;99.90;;;;;;4972212;28;20446;-80
2023/05/17 10:11:33;;;;;;;6.90;1.67;;;14.90;97.30;;;;;;4988956;28;20073;-80
2023/05/17 10:14:21;;;;;;;5.85;1.50;;;14.80;91.40;;;;;;4969629;28;20381;-78
2023/05/17 10:16:48;;;;;;;7.63;1.73;;;15.00;85.00;;;;;;4980405;28;20042;-80
2023/05/17 10:19:14;;;;;;;4.45;1.58;;;15.10;82.90;;;;;;4953777;28;20439;-77
2023/05/17 10:21:42;;;;;;;6.43;1.83;;;15.20;88.60;;;;;;4965297;28;20688;-79
2023/05/17 10:24:10;;;;;;;9.18;1.55;;;15.30;79.20;;;;;;4993612;28;20038;-76
2023/05/17 10:26:37;;;;;;;4.95;1.63;;;15.40;90.10;;;;;;5053593;28;20067;-79
2023/05/17 10:29:04;;;;;;;4.22;1.40;;;15.70;94.10;;;;;;4992775;28;20053;-76
2023/05/17 10:31:32;;;;;;;4.65;1.80;;;16.00;97.60;;;;;;5017466;28;20045;-75
2023/05/17 10:34:06;;;;;;;5.13;1.15;;;16.10;98.60;;;;;;4969199;28;20050;-81
2023/05/17 10:36:50;;;;;;;4.60;1.50;;;16.20;93.50;;;;;;4990733;28;20056;-81
2023/05/17 10:39:55;;;;;;;;;;;;;;;;;;;;;
2023/05/17 10:43:02;;;;;;;7.22;1.85;;;17.80;78.90;;;;;;4989479;28;20052;-83
2023/05/17 10:45:28;;;;;;;4.60;1.73;;;16.80;42.70;;;;;;4971982;28;20041;-76
2023/05/17 10:48:00;;;;;;;7.85;1.65;;;16.90;53.30;;;;;;4967127;28;20034;-77
2023/05/17 10:50:26;;;;;;;5.05;1.52;;;16.30;7.50;;;;;;4954575;28;20042;-76
2023/05/17 10:52:54;;;;;;;6.20;1.63;;;16.00;26.50;;;;;;5012145;28;20038;-78
2023/05/17 10:55:36;;;;;;;3.83;1.50;;;16.10;55.10;;;;;;4971584;28;20058;-78
2023/05/17 10:58:25;;;;;;;8.30;1.90;;;16.20;69.20;;;;;;4964499;28;20454;-77
2023/05/17 11:00:55;;;;;;;4.75;1.60;;;16.80;39.40;;;;;;5003786;28;20038;-77
2023/05/17 11:03:32;;;;;;;10.27;1.88;;;17.00;28.20;;;;;;4971044;28;20046;-77
2023/05/17 11:06:13;;;;;;;7.25;1.85;;;16.50;16.60;;;;;;4951190;28;20043;-74
2023/05/17 11:09:02;;;;;;;5.60;1.38;;;16.00;16.90;;;;;;4988213;28;20061;-75
2023/05/17 11:11:29;;;;;;;6.97;1.60;;;15.80;21.10;;;;;;4969427;28;20061;-80
2023/05/17 11:13:55;;;;;;;5.15;1.83;;;15.60;25.60;;;;;;5014765;28;20065;-77
2023/05/17 11:16:33;;;;;;;7.20;2.17;;;15.70;11.40;;;;;;4958402;28;20650;-77
2023/05/17 11:19:07;;;;;;;3.63;1.42;;;15.70;11.10;;;;;;4974101;28;20033;-77
2023/05/17 11:21:45;;;;;;;4.35;1.30;;;16.10;1.00;;;;;;4987243;28;20081;-82
2023/05/17 11:24:15;;;;;;;3.95;1.48;;;16.20;4.20;;;;;;4989830;28;20152;-76
2023/05/17 11:26:44;;;;;;;5.50;1.48;;;16.40;1.00;;;;;;4988414;28;20679;-79
2023/05/17 11:29:11;;;;;;;4.28;1.40;;;16.40;4.20;;;;;;4967404;28;20038;-76
2023/05/17 11:31:42;;;;;;;6.50;2.00;;;16.10;1.00;;;;;;5059091;28;20042;-77
2023/05/17 11:34:09;;;;;;;6.95;2.10;;;16.40;1.00;;;;;;4966735;28;20379;-75
2023/05/17 11:36:55;;;;;;;7.63;1.70;;;16.20;1.00;;;;;;4989775;28;20084;-77
2023/05/17 11:39:22;;;;;;;8.05;2.10;;;15.90;14.20;;;;;;4981514;28;20054;-82
2023/05/17 11:41:52;;;;;;;6.32;1.88;;;15.70;24.00;;;;;;4988218;28;20085;-78
2023/05/17 11:44:29;;;;;;;7.00;2.10;;;16.30;30.30;;;;;;4973224;28;20465;-75
2023/05/17 11:47:02;;;;;;;10.25;1.95;;;16.00;21.90;;;;;;5026209;28;20046;-77
2023/05/17 11:49:31;;;;;;;4.82;1.90;;;16.20;25.90;;;;;;4989580;28;20492;-78
2023/05/17 11:51:57;;;;;;;8.65;2.67;;;16.00;29.20;;;;;;4974545;28;20545;-81
2023/05/17 11:54:24;;;;;;;9.13;2.17;;;15.70;27.60;;;;;;5006503;28;20060;-77
2023/05/17 11:56:53;;;;;;;9.48;2.30;;;15.70;35.00;;;;;;4988222;28;20727;-75
2023/05/17 11:59:22;;;;;;;7.45;1.88;;;16.30;37.00;;;;;;4998961;28;20048;-75
2023/05/17 12:01:49;;;;;;;9.65;1.63;;;16.20;22.50;;;;;;4975126;28;20060;-80
2023/05/17 12:04:25;;;;;;;6.28;1.80;;;16.20;25.70;;;;;;4990528;28;20073;-77
2023/05/17 12:06:55;;;;;;;7.90;2.13;;;16.60;19.20;;;;;;4993757;28;20046;-75
2023/05/17 12:09:25;;;;;;;5.63;1.83;;;17.10;10.40;;;;;;4954642;28;20110;-79
2023/05/17 12:11:51;;;;;;;4.65;1.50;;;16.60;1.00;;;;;;4981521;28;20046;-80
2023/05/17 12:14:20;;;;;;;8.63;2.00;;;16.50;7.30;;;;;;4973608;28;20125;-77
2023/05/17 12:16:51;;;;;;;6.28;1.73;;;16.30;9.90;;;;;;4993214;28;20062;-79
2023/05/17 12:19:28;;;;;;;7.72;1.85;;;16.20;6.90;;;;;;4988922;28;20038;-80
2023/05/17 12:22:11;;;;;;;7.32;2.00;;;16.00;1.00;;;;;;4956891;28;20054;-77
2023/05/17 12:24:38;;;;;;;6.35;1.83;;;16.10;1.00;;;;;;4983768;28;20120;-77
2023/05/17 12:27:03;;;;;;;6.78;2.00;;;16.30;1.00;;;;;;4956303;28;20053;-79
2023/05/17 12:29:29;;;;;;;6.25;1.77;;;16.40;1.00;;;;;;4994688;28;20042;-77
2023/05/17 12:31:55;;;;;;;4.53;1.45;;;16.30;1.00;;;;;;4972155;28;20045;-81
2023/05/17 12:34:21;;;;;;;6.22;1.63;;;16.50;1.00;;;;;;4989641;28;20091;-76
2023/05/17 12:36:47;;;;;;;6.88;1.70;;;16.20;1.00;;;;;;5032827;28;20034;-77
2023/05/17 12:39:14;;;;;;;5.85;1.77;;;16.20;1.00;;;;;;4987036;28;20511;-80
2023/05/17 12:41:40;;;;;;;5.75;1.67;;;16.10;1.00;;;;;;4983369;28;20433;-79
2023/05/17 12:44:07;;;;;;;8.82;1.70;;;16.50;1.00;;;;;;4973981;28;20045;-75
2023/05/17 12:46:33;;;;;;;6.82;1.55;;;16.70;1.00;;;;;;5005372;28;20820;-81
2023/05/17 12:49:08;;;;;;;7.25;1.65;;;16.50;1.00;;;;;;4974848;28;20042;-77
2023/05/17 12:51:44;;;;;;;6.88;1.80;;;16.60;1.00;;;;;;4986832;28;20444;-79